createdAt,value
2018-02-13T00:02:19.400Z,62.10
2018-02-13T00:04:50.816Z,62.10
2018-02-13T00:07:23.153Z,62.10
2018-02-13T00:09:54.918Z,62.10
2018-02-13T00:12:27.820Z,62.10
2018-02-13T00:15:11.932Z,61.90
2018-02-13T00:17:42.429Z,62.00
2018-02-13T00:20:15.338Z,62.30
2018-02-13T00:22:51.309Z,62.30
2018-02-13T00:25:21.815Z,62.30
2018-02-13T00:27:54.553Z,62.20
2018-02-13T00:30:24.976Z,62.20
2018-02-13T00:32:55.368Z,62.30
2018-02-13T00:35:25.835Z,62.30
2018-02-13T00:37:58.005Z,62.50
2018-02-13T00:40:29.279Z,63.00
2018-02-13T00:43:00.425Z,62.80
2018-02-13T00:45:31.959Z,62.60
2018-02-13T00:48:02.302Z,62.50
2018-02-13T00:50:33.410Z,62.60
2018-02-13T00:53:03.898Z,62.70
2018-02-13T00:55:34.396Z,62.70
2018-02-13T00:58:05.010Z,62.70
2018-02-13T01:00:37.292Z,62.70
2018-02-13T01:03:08.535Z,62.70
2018-02-13T01:05:38.937Z,62.60
2018-02-13T01:08:09.723Z,62.80
2018-02-13T01:10:40.887Z,63.00
2018-02-13T01:13:11.350Z,62.90
2018-02-13T01:15:41.738Z,62.90
2018-02-13T01:21:35.280Z,63.20
2018-02-13T01:24:05.775Z,63.30
2018-02-13T01:26:36.249Z,63.40
2018-02-13T01:29:08.142Z,63.60
2018-02-13T01:31:39.030Z,63.70
2018-02-13T01:34:09.508Z,63.50
2018-02-13T01:36:40.123Z,63.70
2018-02-13T01:39:11.242Z,64.00
2018-02-13T01:41:42.347Z,64.10
2018-02-13T01:44:12.585Z,64.10
2018-02-13T01:46:43.059Z,64.00
2018-02-13T01:49:16.869Z,64.10
2018-02-13T01:51:47.752Z,64.30
2018-02-13T01:54:18.149Z,64.40
2018-02-13T01:56:48.647Z,64.30
2018-02-13T01:59:22.796Z,64.20
2018-02-13T02:01:53.022Z,64.20
2018-02-13T02:04:23.365Z,64.20
2018-02-13T02:06:53.817Z,64.20
2018-02-13T02:09:24.568Z,64.30
2018-02-13T02:11:55.663Z,64.30
2018-02-13T02:14:25.924Z,64.30
2018-02-13T02:16:56.768Z,64.20
2018-02-13T02:19:27.389Z,64.30
2018-02-13T02:21:57.669Z,64.30
2018-02-13T02:24:28.190Z,64.40
2018-02-13T02:26:58.437Z,64.50
2018-02-13T02:29:28.652Z,64.60
2018-02-13T02:31:59.056Z,65.00
2018-02-13T02:34:29.666Z,64.80
2018-02-13T02:37:00.414Z,64.70
2018-02-13T02:39:31.012Z,64.60
2018-02-13T02:42:01.400Z,65.00
2018-02-13T02:44:33.203Z,65.00
2018-02-13T02:47:04.365Z,65.10
2018-02-13T02:52:02.318Z,65.40
2018-02-13T02:54:33.010Z,65.30
2018-02-13T02:57:03.439Z,65.20
2018-02-13T02:59:34.699Z,65.20
2018-02-13T03:02:06.683Z,65.40
2018-02-13T03:04:37.168Z,65.20
2018-02-13T03:07:08.303Z,65.30
2018-02-13T03:09:38.524Z,65.10
2018-02-13T03:12:08.924Z,65.50
2018-02-13T03:14:40.167Z,65.70
2018-02-13T03:17:10.459Z,65.60
2018-02-13T03:19:42.145Z,65.70
2018-02-13T03:22:12.802Z,65.70
2018-02-13T03:24:43.615Z,65.60
2018-02-13T03:27:13.784Z,65.80
2018-02-13T03:29:44.493Z,65.50
2018-02-13T03:32:14.975Z,65.80
2018-02-13T03:34:45.322Z,65.80
2018-02-13T03:37:15.693Z,65.80
2018-02-13T03:39:46.605Z,65.90
2018-02-13T03:42:17.826Z,65.90
2018-02-13T03:44:48.255Z,65.90
2018-02-13T03:47:18.851Z,66.20
2018-02-13T03:49:49.115Z,66.10
2018-02-13T03:52:20.451Z,66.90
2018-02-13T03:54:51.432Z,66.10
2018-02-13T03:57:24.244Z,66.30
2018-02-13T03:59:54.776Z,66.30
2018-02-13T04:02:25.778Z,66.40
2018-02-13T04:04:56.904Z,66.40
2018-02-13T04:07:27.492Z,66.40
2018-02-13T04:09:57.933Z,66.70
2018-02-13T04:12:28.284Z,66.70
2018-02-13T04:14:58.975Z,66.80
2018-02-13T04:17:29.274Z,66.90
2018-02-13T04:19:59.500Z,67.00
2018-02-13T04:22:30.114Z,67.10
2018-02-13T04:25:01.438Z,67.30
2018-02-13T04:27:31.967Z,67.30
2018-02-13T04:30:02.394Z,67.30
2018-02-13T04:32:32.971Z,67.10
2018-02-13T04:35:03.731Z,67.20
2018-02-13T04:37:34.072Z,67.90
2018-02-13T04:40:04.623Z,67.10
2018-02-13T04:42:36.123Z,67.40
2018-02-13T04:45:06.482Z,67.00
2018-02-13T04:47:37.322Z,67.20
2018-02-13T04:50:08.119Z,66.80
2018-02-13T04:52:38.743Z,66.70
2018-02-13T04:55:09.430Z,66.70
2018-02-13T04:57:40.770Z,66.90
2018-02-13T05:00:11.418Z,66.90
2018-02-13T05:02:43.712Z,68.50
2018-02-13T05:05:15.155Z,66.80
2018-02-13T05:07:46.058Z,66.80
2018-02-13T05:10:16.526Z,67.20
2018-02-13T05:12:47.285Z,66.80
2018-02-13T05:15:17.760Z,66.80
2018-02-13T05:17:49.037Z,66.90
2018-02-13T05:20:19.888Z,66.90
2018-02-13T05:22:51.209Z,66.90
2018-02-13T05:25:22.427Z,66.80
2018-02-13T05:27:54.067Z,66.80
2018-02-13T05:30:25.786Z,66.70
2018-02-13T05:32:56.017Z,66.80
2018-02-13T05:35:27.396Z,66.90
2018-02-13T05:37:57.973Z,66.90
2018-02-13T05:40:28.398Z,67.10
2018-02-13T05:42:58.952Z,67.10
2018-02-13T05:45:29.383Z,67.30
2018-02-13T05:48:00.014Z,67.60
2018-02-13T05:50:30.836Z,67.50
2018-02-13T05:53:01.129Z,67.80
2018-02-13T05:55:32.395Z,68.00
2018-02-13T05:58:03.130Z,67.90
2018-02-13T06:00:34.067Z,67.80
2018-02-13T06:03:05.163Z,67.50
2018-02-13T06:05:36.199Z,67.50
2018-02-13T06:08:07.553Z,67.60
2018-02-13T06:10:38.623Z,67.80
2018-02-13T06:13:09.871Z,67.80
2018-02-13T06:15:42.216Z,68.10
2018-02-13T06:18:13.670Z,68.20
2018-02-13T06:20:45.126Z,68.20
2018-02-13T06:23:20.674Z,68.60
2018-02-13T06:25:52.143Z,68.70
2018-02-13T06:28:25.240Z,69.00
2018-02-13T06:30:55.999Z,68.80
2018-02-13T06:33:26.837Z,69.20
2018-02-13T06:35:58.593Z,69.30
2018-02-13T06:38:29.423Z,70.30
2018-02-13T06:41:00.022Z,71.80
2018-02-13T06:43:35.611Z,68.90
2018-02-13T06:46:06.139Z,68.90
2018-02-13T06:48:38.746Z,68.80
2018-02-13T06:51:09.508Z,69.20
2018-02-13T06:53:40.139Z,69.40
2018-02-13T06:56:11.349Z,69.70
2018-02-13T06:58:41.977Z,70.00
2018-02-13T07:01:12.666Z,70.20
2018-02-13T07:03:43.160Z,70.50
2018-02-13T07:06:13.788Z,70.60
2018-02-13T07:08:45.391Z,70.60
2018-02-13T07:11:15.993Z,70.60
2018-02-13T07:13:49.656Z,70.80
2018-02-13T07:16:21.419Z,70.70
2018-02-13T07:18:52.975Z,70.80
2018-02-13T07:21:23.925Z,70.50
2018-02-13T07:23:57.348Z,70.60
2018-02-13T07:26:29.817Z,70.80
2018-02-13T07:29:04.256Z,70.70
2018-02-13T07:31:35.621Z,70.80
2018-02-13T07:34:08.035Z,70.70
2018-02-13T07:36:39.896Z,70.60
2018-02-13T07:39:12.505Z,71.00
2018-02-13T07:41:43.785Z,70.80
2018-02-13T07:44:14.449Z,70.90
2018-02-13T07:46:45.774Z,71.00
2018-02-13T07:49:16.206Z,71.00
2018-02-13T07:51:46.839Z,70.70
2018-02-13T07:57:02.364Z,71.20
2018-02-13T07:59:34.777Z,71.00
2018-02-13T08:02:07.089Z,71.00
2018-02-13T08:04:46.218Z,70.90
2018-02-13T08:07:17.351Z,70.90
2018-02-13T08:09:52.953Z,70.60
2018-02-13T08:12:25.016Z,71.60
2018-02-13T08:14:57.696Z,70.70
2018-02-13T08:17:34.566Z,70.60
2018-02-13T08:20:06.623Z,70.70
2018-02-13T08:22:37.882Z,70.70
2018-02-13T08:25:10.824Z,70.40
2018-02-13T08:27:44.341Z,70.40
2018-02-13T08:30:44.229Z,70.90
2018-02-13T08:33:17.617Z,70.60
2018-02-13T08:35:51.169Z,70.70
2018-02-13T08:38:21.792Z,70.60
2018-02-13T08:40:53.983Z,70.80
2018-02-13T08:43:25.268Z,70.60
2018-02-13T08:45:55.962Z,70.60
2018-02-13T08:48:30.364Z,70.50
2018-02-13T08:51:01.025Z,70.50
2018-02-13T08:53:37.418Z,70.50
2018-02-13T08:56:08.189Z,70.40
2018-02-13T08:58:39.299Z,70.10
2018-02-13T09:01:23.173Z,70.20
2018-02-13T09:03:55.314Z,70.10
2018-02-13T09:06:29.267Z,70.00
2018-02-13T09:09:01.986Z,69.80
2018-02-13T09:11:33.973Z,69.60
2018-02-13T09:14:09.243Z,69.40
2018-02-13T09:16:44.148Z,69.30
2018-02-13T09:19:16.521Z,69.10
2018-02-13T09:21:47.716Z,69.80
2018-02-13T09:24:19.049Z,69.40
2018-02-13T09:27:02.766Z,69.40
2018-02-13T09:29:35.269Z,69.40
2018-02-13T09:32:07.940Z,69.10
2018-02-13T09:34:43.991Z,69.10
2018-02-13T09:37:17.501Z,69.10
2018-02-13T09:40:04.073Z,68.70
2018-02-13T09:45:19.077Z,68.20
2018-02-13T09:47:50.562Z,68.00
2018-02-13T09:50:21.062Z,67.90
2018-02-13T09:52:53.666Z,67.80
2018-02-13T09:55:25.027Z,67.50
2018-02-13T09:57:59.494Z,67.50
2018-02-13T10:00:32.966Z,67.50
2018-02-13T10:06:06.253Z,66.90
2018-02-13T10:11:32.811Z,66.60
2018-02-13T10:14:08.046Z,66.30
2018-02-13T10:16:42.821Z,66.20
2018-02-13T10:19:16.999Z,65.90
2018-02-13T10:21:48.588Z,65.60
2018-02-13T10:27:44.515Z,65.50
2018-02-13T10:39:47.521Z,63.80
2018-02-13T10:48:41.781Z,63.30
2018-02-13T10:51:25.257Z,62.90
2018-02-13T10:56:55.341Z,62.30
2018-02-13T11:08:54.593Z,61.30
2018-02-13T11:30:40.183Z,59.00
2018-02-13T11:45:45.579Z,57.70
2018-02-13T11:48:19.463Z,57.40
2018-02-13T11:56:38.847Z,57.30
2018-02-13T11:59:35.849Z,56.90
2018-02-13T12:02:09.445Z,56.60
2018-02-13T12:04:54.598Z,56.60
2018-02-13T12:14:00.547Z,55.80
2018-02-13T12:16:32.925Z,55.50
2018-02-13T12:19:06.392Z,56.00
2018-02-13T12:21:41.631Z,55.30
2018-02-13T12:24:13.070Z,55.20
2018-02-13T12:26:44.726Z,55.00
2018-02-13T12:29:22.556Z,54.80
2018-02-13T12:31:53.366Z,54.80
2018-02-13T12:34:42.809Z,54.60
2018-02-13T12:40:21.899Z,54.20
2018-02-13T12:46:15.645Z,53.70
2018-02-13T12:51:56.846Z,54.40
2018-02-13T12:54:30.822Z,53.10
2018-02-13T12:57:05.653Z,52.70
2018-02-13T12:59:39.890Z,52.70
2018-02-13T13:02:27.701Z,52.90
2018-02-13T13:05:25.442Z,52.80
2018-02-13T13:08:00.046Z,53.30
2018-02-13T13:10:34.650Z,53.40
2018-02-13T13:13:09.425Z,52.80
2018-02-13T13:15:49.934Z,53.40
2018-02-13T13:21:43.847Z,52.80
2018-02-13T13:24:31.615Z,52.80
2018-02-13T13:27:07.039Z,52.70
2018-02-13T13:29:40.983Z,52.90
2018-02-13T13:32:20.730Z,52.90
2018-02-13T13:34:55.100Z,51.70
2018-02-13T13:37:41.187Z,51.40
2018-02-13T13:43:27.951Z,51.70
2018-02-13T13:46:14.227Z,51.60
2018-02-13T13:48:58.757Z,51.60
2018-02-13T13:51:58.598Z,51.30
2018-02-13T13:54:31.365Z,51.50
2018-02-13T13:57:02.807Z,51.80
2018-02-13T13:59:50.487Z,51.50
2018-02-13T14:02:44.213Z,51.50
2018-02-13T14:05:19.489Z,50.70
2018-02-13T14:07:50.158Z,50.80
2018-02-13T14:10:26.750Z,50.10
2018-02-13T14:12:58.313Z,49.90
2018-02-13T14:15:28.978Z,49.90
2018-02-13T14:18:00.752Z,50.20
2018-02-13T14:20:37.045Z,50.40
2018-02-13T14:23:24.181Z,50.20
2018-02-13T14:26:07.950Z,50.90
2018-02-13T14:28:58.168Z,50.90
2018-02-13T14:31:33.436Z,50.30
2018-02-13T14:34:09.047Z,50.20
2018-02-13T14:36:48.639Z,50.00
2018-02-13T14:51:40.219Z,49.00
2018-02-13T14:54:21.922Z,49.10
2018-02-13T15:15:39.774Z,49.70
2018-02-13T15:18:37.519Z,49.50
2018-02-13T15:21:15.628Z,49.90
2018-02-13T15:23:47.708Z,50.90
2018-02-13T15:26:23.066Z,49.90
2018-02-13T15:29:04.699Z,49.60
2018-02-13T15:31:45.971Z,49.40
2018-02-13T15:34:34.588Z,49.40
2018-02-13T15:37:09.887Z,49.10
2018-02-13T15:39:49.111Z,49.30
2018-02-13T15:42:34.417Z,49.50
2018-02-13T15:45:25.361Z,49.60
2018-02-13T15:47:59.183Z,49.40
2018-02-13T15:50:39.588Z,49.80
2018-02-13T15:56:37.186Z,49.40
2018-02-13T15:59:13.906Z,50.00
2018-02-13T16:02:10.898Z,49.40
2018-02-13T16:10:52.835Z,49.80
2018-02-13T16:13:24.121Z,50.10
2018-02-13T16:16:06.950Z,50.30
2018-02-13T16:18:41.327Z,50.50
2018-02-13T16:21:15.433Z,50.60
2018-02-13T16:23:46.632Z,51.80
2018-02-13T16:26:18.581Z,50.80
2018-02-13T16:28:50.128Z,51.20
2018-02-13T16:31:28.872Z,51.20
2018-02-13T16:34:16.930Z,51.40
2018-02-13T16:36:48.919Z,51.50
2018-02-13T16:39:20.253Z,51.60
2018-02-13T16:42:17.002Z,51.80
2018-02-13T16:45:13.417Z,52.00
2018-02-13T16:47:44.622Z,52.30
2018-02-13T16:50:19.387Z,52.90
2018-02-13T16:52:50.943Z,52.70
2018-02-13T16:55:23.237Z,53.00
2018-02-13T16:58:06.204Z,52.90
2018-02-13T17:00:43.562Z,53.10
2018-02-13T17:03:15.197Z,53.10
2018-02-13T17:05:57.338Z,53.10
2018-02-13T17:08:30.560Z,53.40
2018-02-13T17:13:49.483Z,53.50
2018-02-13T17:19:45.409Z,53.90
2018-02-13T17:22:16.009Z,53.80
2018-02-13T17:24:51.243Z,55.40
2018-02-13T17:27:27.151Z,55.60
2018-02-13T17:29:58.366Z,55.60
2018-02-13T17:32:29.334Z,55.70
2018-02-13T17:35:12.268Z,55.80
2018-02-13T17:40:27.869Z,55.90
2018-02-13T17:43:00.447Z,55.60
2018-02-13T17:45:32.784Z,55.50
2018-02-13T17:48:03.247Z,55.60
2018-02-13T17:50:51.764Z,55.60
2018-02-13T17:53:22.791Z,54.90
2018-02-13T17:58:49.290Z,55.40
2018-02-13T18:01:19.696Z,55.60
2018-02-13T18:03:51.283Z,55.10
2018-02-13T18:06:22.714Z,55.40
2018-02-13T18:08:58.948Z,55.20
2018-02-13T18:11:29.548Z,55.40
2018-02-13T18:14:02.493Z,55.60
2018-02-13T18:16:34.173Z,55.80
2018-02-13T18:19:04.518Z,56.00
2018-02-13T18:30:56.601Z,56.10
2018-02-13T18:55:02.808Z,55.10
2018-02-13T19:19:59.050Z,54.70
2018-02-13T19:22:55.661Z,54.70
2018-02-13T19:35:42.923Z,54.80
2018-02-13T19:38:41.772Z,54.20
2018-02-13T19:41:38.343Z,54.20
2018-02-13T19:44:39.451Z,54.20
2018-02-13T19:47:47.727Z,54.40
2018-02-13T19:50:34.552Z,54.40
2018-02-13T19:53:34.243Z,54.30
2018-02-13T20:02:41.498Z,53.90
2018-02-13T20:05:26.212Z,54.10
2018-02-13T20:10:53.877Z,53.90
2018-02-13T20:13:40.557Z,53.90
2018-02-13T20:16:31.483Z,53.90
2018-02-13T20:19:02.098Z,53.60
2018-02-13T20:24:17.978Z,54.10
2018-02-13T20:29:33.542Z,53.50
2018-02-13T20:38:32.946Z,53.60
2018-02-13T20:44:08.583Z,53.30
2018-02-13T20:46:42.102Z,53.50
2018-02-13T20:49:12.570Z,53.50
2018-02-13T20:51:44.111Z,53.40
2018-02-13T20:54:29.114Z,53.70
2018-02-13T21:02:58.475Z,53.60
2018-02-13T21:05:33.479Z,53.70
2018-02-13T21:08:03.715Z,53.70
2018-02-13T21:10:38.445Z,53.60
2018-02-13T21:13:37.790Z,53.60
2018-02-13T21:22:28.648Z,53.60
2018-02-13T21:25:00.723Z,53.60
2018-02-13T21:27:31.161Z,53.60
2018-02-13T21:30:02.404Z,53.80
2018-02-13T21:32:32.914Z,53.70
2018-02-13T21:35:06.188Z,53.80
2018-02-13T21:37:38.612Z,53.90
2018-02-13T21:40:09.260Z,53.90
2018-02-13T21:42:40.208Z,53.80
2018-02-13T21:45:12.958Z,54.80
2018-02-13T21:47:45.062Z,53.80
2018-02-13T21:50:16.476Z,53.80
2018-02-13T21:52:47.334Z,53.80
2018-02-13T21:55:17.588Z,53.70
2018-02-13T21:57:50.075Z,53.60
2018-02-13T22:00:20.534Z,53.70
2018-02-13T22:02:51.391Z,53.60
2018-02-13T22:05:21.786Z,53.70
2018-02-13T22:07:52.044Z,53.70
2018-02-13T22:10:22.762Z,53.50
2018-02-13T22:12:52.948Z,53.70
2018-02-13T22:15:24.660Z,53.90
2018-02-13T22:17:56.189Z,53.90
2018-02-13T22:20:27.055Z,53.80
2018-02-13T22:22:58.244Z,54.00
2018-02-13T22:25:30.107Z,54.00
2018-02-13T22:28:00.586Z,54.20
2018-02-13T22:30:33.811Z,54.30
2018-02-13T22:33:06.667Z,54.30
2018-02-13T22:35:37.868Z,54.40
2018-02-13T22:38:08.441Z,54.50
2018-02-13T22:40:39.454Z,54.50
2018-02-13T22:43:10.336Z,54.50
2018-02-13T22:45:42.416Z,54.50
2018-02-13T22:48:35.105Z,54.60
2018-02-13T22:51:25.427Z,54.60
2018-02-13T22:54:00.724Z,54.70
2018-02-13T22:56:36.353Z,54.70
2018-02-13T22:59:11.440Z,54.60
2018-02-13T23:01:45.587Z,54.70
2018-02-13T23:04:16.170Z,54.80
2018-02-13T23:06:52.032Z,54.80
2018-02-13T23:09:23.566Z,54.90
2018-02-13T23:11:58.599Z,55.20
2018-02-13T23:14:30.652Z,55.10
2018-02-13T23:17:01.338Z,54.60
2018-02-13T23:19:32.572Z,54.80
2018-02-13T23:22:05.352Z,54.90
2018-02-13T23:24:37.259Z,54.90
2018-02-13T23:27:08.436Z,55.00
2018-02-13T23:29:39.367Z,54.90
2018-02-13T23:32:12.110Z,55.60
2018-02-13T23:34:44.611Z,55.00
2018-02-13T23:37:14.943Z,55.00
2018-02-13T23:39:45.363Z,55.10
2018-02-13T23:42:15.787Z,55.20
2018-02-13T23:44:59.048Z,55.40
2018-02-13T23:47:30.766Z,55.30
2018-02-13T23:50:01.024Z,55.30
2018-02-13T23:52:31.459Z,55.50
2018-02-13T23:55:02.147Z,55.50
2018-02-13T23:57:32.631Z,55.50
